createdAt,value
2019-05-14T00:01:02.832Z,37.20
2019-05-14T00:03:31.132Z,37.30
2019-05-14T00:05:58.588Z,37.30
2019-05-14T00:08:25.994Z,37.40
2019-05-14T00:10:53.435Z,37.40
2019-05-14T00:13:21.480Z,37.50
2019-05-14T00:15:49.186Z,37.60
2019-05-14T00:18:16.620Z,37.60
2019-05-14T00:20:44.071Z,37.60
2019-05-14T00:23:11.848Z,37.70
2019-05-14T00:25:41.765Z,37.70
2019-05-14T00:28:08.771Z,37.80
2019-05-14T00:30:36.218Z,37.80
2019-05-14T00:33:03.597Z,38.00
2019-05-14T00:35:32.541Z,37.90
2019-05-14T00:38:01.353Z,37.90
2019-05-14T00:40:31.231Z,38.00
2019-05-14T00:42:58.338Z,38.00
2019-05-14T00:45:25.667Z,38.30
2019-05-14T00:47:53.141Z,38.30
2019-05-14T00:50:21.608Z,38.20
2019-05-14T00:52:51.467Z,38.30
2019-05-14T00:55:18.474Z,38.40
2019-05-14T00:57:45.837Z,38.40
2019-05-14T01:00:13.472Z,38.50
2019-05-14T01:02:41.526Z,38.40
2019-05-14T01:05:12.170Z,38.50
2019-05-14T01:07:38.961Z,38.50
2019-05-14T01:10:06.788Z,38.50
2019-05-14T01:12:34.175Z,38.60
2019-05-14T01:15:11.644Z,38.70
2019-05-14T01:17:31.538Z,38.60
2019-05-14T01:19:58.996Z,38.70
2019-05-14T01:22:26.343Z,38.80
2019-05-14T01:24:53.678Z,38.90
2019-05-14T01:27:21.550Z,38.90
2019-05-14T01:29:51.197Z,39.00
2019-05-14T01:32:18.127Z,39.10
2019-05-14T01:34:45.569Z,39.20
2019-05-14T01:37:13.089Z,39.30
2019-05-14T01:39:41.895Z,39.40
2019-05-14T01:42:12.177Z,39.40
2019-05-14T01:44:41.099Z,38.70
2019-05-14T01:47:08.089Z,39.40
2019-05-14T01:49:35.525Z,39.40
2019-05-14T01:52:03.001Z,39.40
2019-05-14T01:54:31.715Z,39.40
2019-05-14T01:56:59.415Z,39.40
2019-05-14T01:59:26.820Z,40.10
2019-05-14T02:01:54.229Z,39.40
2019-05-14T02:04:22.156Z,39.40
2019-05-14T02:06:51.461Z,39.50
2019-05-14T02:09:19.088Z,39.50
2019-05-14T02:11:46.448Z,39.60
2019-05-14T02:14:13.855Z,39.70
2019-05-14T02:16:42.212Z,39.80
2019-05-14T02:19:11.557Z,39.80
2019-05-14T02:21:39.147Z,39.80
2019-05-14T02:24:06.541Z,39.80
2019-05-14T02:26:33.996Z,39.80
2019-05-14T02:29:02.013Z,39.90
2019-05-14T02:31:29.643Z,40.00
2019-05-14T02:33:59.078Z,39.90
2019-05-14T02:36:26.272Z,39.90
2019-05-14T02:38:53.665Z,39.90
2019-05-14T02:41:20.952Z,39.90
2019-05-14T02:43:50.194Z,39.90
2019-05-14T02:46:21.721Z,39.90
2019-05-14T02:48:49.150Z,39.90
2019-05-14T02:51:19.549Z,39.90
2019-05-14T02:53:45.930Z,39.90
2019-05-14T02:56:13.360Z,39.80
2019-05-14T02:58:40.780Z,39.80
2019-05-14T03:01:09.450Z,39.80
2019-05-14T03:03:39.806Z,39.80
2019-05-14T03:06:09.197Z,40.50
2019-05-14T03:08:38.824Z,39.90
2019-05-14T03:11:04.941Z,40.50
2019-05-14T03:13:32.433Z,40.00
2019-05-14T03:15:59.893Z,40.00
2019-05-14T03:18:29.562Z,40.00
2019-05-14T03:21:00.440Z,40.10
2019-05-14T03:23:25.929Z,40.00
2019-05-14T03:25:53.604Z,40.00
2019-05-14T03:28:21.177Z,40.10
2019-05-14T03:30:52.141Z,40.10
2019-05-14T03:33:21.921Z,40.10
2019-05-14T03:35:56.320Z,40.10
2019-05-14T03:38:19.497Z,40.20
2019-05-14T03:40:45.697Z,40.40
2019-05-14T03:43:13.207Z,40.10
2019-05-14T03:45:41.125Z,40.30
2019-05-14T03:48:10.387Z,40.30
2019-05-14T03:50:38.940Z,40.30
2019-05-14T03:53:09.856Z,40.40
2019-05-14T03:55:35.958Z,40.40
2019-05-14T03:58:03.331Z,40.50
2019-05-14T04:00:50.341Z,40.40
2019-05-14T04:03:19.816Z,40.50
2019-05-14T04:05:49.317Z,40.40
2019-05-14T04:08:20.938Z,40.40
2019-05-14T04:10:53.483Z,40.40
2019-05-14T04:13:19.860Z,40.30
2019-05-14T04:15:49.744Z,40.40
2019-05-14T04:18:18.676Z,40.40
2019-05-14T04:20:50.078Z,40.40
2019-05-14T04:23:19.827Z,40.40
2019-05-14T04:25:51.687Z,40.40
2019-05-14T04:28:20.426Z,40.50
2019-05-14T04:30:51.828Z,40.50
2019-05-14T04:33:23.272Z,40.50
2019-05-14T04:35:52.117Z,40.60
2019-05-14T04:38:20.295Z,40.60
2019-05-14T04:40:49.362Z,40.50
2019-05-14T04:43:19.204Z,40.70
2019-05-14T04:45:49.361Z,40.70
2019-05-14T04:48:31.024Z,40.80
2019-05-14T04:50:49.500Z,40.70
2019-05-14T04:53:15.628Z,40.80
2019-05-14T04:55:43.125Z,40.80
2019-05-14T04:58:10.548Z,40.80
2019-05-14T05:00:39.106Z,40.90
2019-05-14T05:03:09.455Z,40.90
2019-05-14T05:05:39.094Z,40.90
2019-05-14T05:08:05.455Z,41.00
2019-05-14T05:10:32.919Z,41.00
2019-05-14T05:13:00.238Z,41.00
2019-05-14T05:15:30.981Z,41.00
2019-05-14T05:17:59.106Z,41.00
2019-05-14T05:20:29.184Z,40.90
2019-05-14T05:22:56.017Z,40.80
2019-05-14T05:25:23.487Z,41.60
2019-05-14T05:27:50.931Z,41.00
2019-05-14T05:30:19.095Z,41.10
2019-05-14T05:32:49.236Z,41.00
2019-05-14T05:35:15.810Z,41.00
2019-05-14T05:37:43.258Z,41.00
2019-05-14T05:40:10.868Z,41.00
2019-05-14T05:42:38.776Z,41.00
2019-05-14T05:45:08.131Z,41.00
2019-05-14T05:47:35.653Z,41.00
2019-05-14T05:50:04.205Z,41.10
2019-05-14T05:52:31.544Z,41.10
2019-05-14T05:54:59.011Z,41.00
2019-05-14T05:57:28.366Z,41.00
2019-05-14T06:00:01.914Z,41.00
2019-05-14T06:02:29.427Z,42.80
2019-05-14T06:04:58.668Z,40.90
2019-05-14T06:07:29.420Z,41.00
2019-05-14T06:09:58.808Z,40.90
2019-05-14T06:12:26.150Z,40.90
2019-05-14T06:14:53.519Z,40.90
2019-05-14T06:19:54.566Z,40.70
2019-05-14T06:22:21.869Z,40.60
2019-05-14T06:24:49.274Z,40.30
2019-05-14T06:27:18.200Z,40.30
2019-05-14T06:29:45.796Z,39.90
2019-05-14T06:32:13.356Z,39.80
2019-05-14T06:34:40.810Z,39.70
2019-05-14T06:37:09.125Z,39.60
2019-05-14T06:39:38.815Z,39.60
2019-05-14T06:42:05.744Z,39.70
2019-05-14T06:44:33.094Z,39.90
2019-05-14T06:47:00.399Z,39.20
2019-05-14T06:49:28.949Z,40.00
2019-05-14T06:51:59.388Z,40.00
2019-05-14T06:54:29.123Z,40.10
2019-05-14T06:56:58.239Z,40.00
2019-05-14T06:59:25.454Z,39.90
2019-05-14T07:01:54.238Z,39.80
2019-05-14T07:04:41.220Z,39.70
2019-05-14T07:07:08.695Z,40.40
2019-05-14T07:09:38.389Z,39.50
2019-05-14T07:12:08.881Z,39.50
2019-05-14T07:14:38.643Z,39.80
2019-05-14T07:17:09.041Z,39.60
2019-05-14T07:19:35.020Z,40.00
2019-05-14T07:22:22.133Z,39.90
2019-05-14T07:24:49.953Z,40.60
2019-05-14T07:27:19.238Z,39.10
2019-05-14T07:29:49.005Z,38.70
2019-05-14T07:32:16.062Z,38.40
2019-05-14T07:34:43.562Z,38.40
2019-05-14T07:37:11.055Z,38.60
2019-05-14T07:41:20.347Z,38.00
2019-05-14T07:43:48.309Z,38.20
2019-05-14T07:46:16.238Z,38.30
2019-05-14T07:48:43.679Z,38.20
2019-05-14T07:51:11.049Z,38.70
2019-05-14T07:53:42.281Z,38.10
2019-05-14T07:56:09.478Z,37.70
2019-05-14T07:58:38.655Z,37.70
2019-05-14T08:01:06.294Z,37.90
2019-05-14T08:03:33.734Z,38.20
2019-05-14T08:06:01.154Z,38.10
2019-05-14T08:08:29.277Z,38.10
2019-05-14T08:10:59.104Z,38.10
2019-05-14T08:13:28.212Z,37.80
2019-05-14T08:15:55.578Z,37.20
2019-05-14T08:18:22.936Z,37.00
2019-05-14T08:20:50.279Z,36.20
2019-05-14T08:23:18.404Z,36.00
2019-05-14T08:25:48.135Z,35.80
2019-05-14T08:28:15.419Z,35.50
2019-05-14T08:30:42.795Z,35.10
2019-05-14T08:33:10.235Z,34.40
2019-05-14T08:35:39.480Z,34.60
2019-05-14T08:38:11.319Z,34.00
2019-05-14T08:40:38.261Z,33.70
2019-05-14T08:43:05.811Z,33.90
2019-05-14T08:45:33.312Z,34.20
2019-05-14T08:48:03.054Z,34.10
2019-05-14T08:50:30.468Z,33.90
2019-05-14T08:52:59.770Z,34.10
2019-05-14T08:55:29.509Z,33.70
2019-05-14T08:57:58.902Z,33.50
2019-05-14T09:00:25.977Z,32.90
2019-05-14T09:02:55.735Z,32.20
2019-05-14T09:05:23.210Z,31.80
2019-05-14T09:07:51.682Z,31.50
2019-05-14T09:10:40.405Z,31.30
2019-05-14T09:13:11.501Z,31.00
2019-05-14T09:15:39.469Z,31.60
2019-05-14T09:42:39.744Z,36.40
2019-05-14T09:45:11.079Z,35.50
2019-05-14T09:47:38.728Z,34.20
2019-05-14T09:50:16.642Z,33.10
2019-05-14T09:52:38.885Z,31.90
2019-05-14T09:55:09.147Z,31.50
2019-05-14T09:57:35.923Z,33.30
2019-05-14T10:00:06.417Z,35.00
2019-05-14T10:02:33.928Z,35.50
2019-05-14T10:05:01.446Z,34.80
2019-05-14T10:07:28.968Z,35.00
2019-05-14T10:09:56.535Z,34.10
2019-05-14T10:12:24.014Z,32.60
2019-05-14T10:14:51.466Z,31.90
2019-05-14T10:17:19.509Z,31.00
2019-05-14T10:19:49.634Z,29.50
2019-05-14T10:22:19.489Z,26.80
2019-05-14T10:24:45.556Z,24.50
2019-05-14T10:27:13.059Z,22.90
2019-05-14T10:29:40.381Z,21.40
2019-05-14T10:32:08.727Z,20.70
2019-05-14T10:34:38.175Z,20.40
2019-05-14T10:37:08.322Z,20.40
2019-05-14T10:39:34.841Z,20.20
2019-05-14T10:42:02.286Z,19.40
2019-05-14T10:44:29.621Z,20.40
2019-05-14T10:46:58.247Z,20.90
2019-05-14T10:49:29.957Z,20.90
2019-05-14T10:51:58.618Z,21.00
2019-05-14T10:54:29.102Z,21.30
2019-05-14T10:56:58.778Z,20.40
2019-05-14T10:59:25.012Z,21.90
2019-05-14T11:01:52.355Z,22.00
2019-05-14T11:04:19.783Z,22.30
2019-05-14T11:06:49.132Z,22.90
2019-05-14T11:09:18.100Z,23.30
2019-05-14T11:11:45.705Z,23.70
2019-05-14T11:14:14.345Z,24.00
2019-05-14T11:16:42.102Z,24.10
2019-05-14T11:19:09.709Z,24.10
2019-05-14T11:21:39.219Z,24.20
2019-05-14T11:24:09.211Z,24.40
2019-05-14T11:26:38.888Z,24.90
2019-05-14T11:29:05.255Z,25.60
2019-05-14T11:31:34.359Z,26.10
2019-05-14T11:34:01.922Z,26.60
2019-05-14T11:36:29.394Z,27.20
2019-05-14T11:39:00.732Z,27.50
2019-05-14T11:41:26.106Z,27.80
2019-05-14T11:43:53.462Z,27.80
2019-05-14T11:46:34.285Z,28.00
2019-05-14T11:48:53.025Z,28.20
2019-05-14T11:51:40.514Z,28.30
2019-05-14T11:53:49.787Z,28.60
2019-05-14T11:56:19.486Z,29.00
2019-05-14T11:58:46.532Z,29.10
2019-05-14T12:01:14.040Z,28.90
2019-05-14T12:03:41.498Z,28.60
2019-05-14T12:06:09.749Z,28.10
2019-05-14T12:08:41.559Z,28.20
2019-05-14T12:11:08.733Z,28.20
2019-05-14T12:13:39.165Z,28.00
2019-05-14T12:16:08.353Z,28.10
2019-05-14T12:18:34.916Z,28.10
2019-05-14T12:21:02.417Z,28.10
2019-05-14T12:23:29.988Z,28.00
2019-05-14T12:25:58.770Z,27.90
2019-05-14T12:28:28.928Z,27.70
2019-05-14T12:30:58.127Z,27.60
2019-05-14T12:33:24.970Z,27.60
2019-05-14T12:35:52.464Z,27.70
2019-05-14T12:38:20.044Z,27.70
2019-05-14T12:40:47.525Z,27.70
2019-05-14T12:43:14.898Z,27.60
2019-05-14T12:45:42.362Z,27.50
2019-05-14T12:48:09.820Z,27.50
2019-05-14T12:50:39.176Z,27.60
2019-05-14T12:53:08.390Z,27.50
2019-05-14T12:55:35.704Z,27.50
2019-05-14T12:58:02.919Z,28.10
2019-05-14T13:00:30.441Z,27.50
2019-05-14T13:02:58.483Z,27.60
2019-05-14T13:05:28.956Z,27.80
2019-05-14T13:07:57.859Z,28.00
2019-05-14T13:10:24.829Z,27.90
2019-05-14T13:12:52.326Z,28.10
2019-05-14T13:15:20.268Z,28.20
2019-05-14T13:17:48.596Z,28.00
2019-05-14T13:20:18.375Z,28.00
2019-05-14T13:22:46.499Z,27.70
2019-05-14T13:25:14.859Z,27.50
2019-05-14T13:27:42.319Z,27.60
2019-05-14T13:30:10.414Z,27.60
2019-05-14T13:32:39.385Z,27.50
2019-05-14T13:35:12.599Z,27.50
2019-05-14T13:37:39.710Z,27.40
2019-05-14T13:40:09.274Z,26.90
2019-05-14T13:42:39.403Z,26.70
2019-05-14T13:45:06.627Z,26.60
2019-05-14T13:47:34.083Z,26.70
2019-05-14T13:50:01.513Z,26.60
2019-05-14T13:52:29.405Z,26.70
2019-05-14T13:54:57.861Z,26.60
2019-05-14T13:57:25.219Z,26.80
2019-05-14T13:59:52.741Z,26.90
2019-05-14T14:02:20.171Z,27.00
2019-05-14T14:04:48.224Z,27.00
2019-05-14T14:07:15.927Z,27.00
2019-05-14T14:09:43.447Z,27.20
2019-05-14T14:12:10.798Z,27.30
2019-05-14T14:14:38.856Z,27.50
2019-05-14T14:17:06.420Z,27.70
2019-05-14T14:19:33.873Z,27.80
2019-05-14T14:22:01.364Z,27.80
2019-05-14T14:24:29.247Z,27.80
2019-05-14T14:26:58.378Z,27.50
2019-05-14T14:29:26.068Z,27.60
2019-05-14T14:31:54.649Z,27.40
2019-05-14T14:34:22.054Z,27.20
2019-05-14T14:36:50.466Z,27.30
2019-05-14T14:39:19.307Z,27.30
2019-05-14T14:41:51.795Z,27.30
2019-05-14T14:44:19.350Z,27.30
2019-05-14T14:46:48.402Z,27.10
2019-05-14T14:49:18.725Z,27.00
2019-05-14T14:51:45.454Z,27.70
2019-05-14T14:54:16.120Z,28.20
2019-05-14T14:56:42.624Z,28.60
2019-05-14T14:59:10.034Z,29.10
2019-05-14T15:01:40.267Z,29.30
2019-05-14T15:04:13.488Z,29.50
2019-05-14T15:06:39.404Z,29.70
2019-05-14T15:09:06.376Z,30.20
2019-05-14T15:11:33.808Z,29.60
2019-05-14T15:14:01.347Z,29.30
2019-05-14T15:16:29.351Z,29.40
2019-05-14T15:18:58.283Z,29.60
2019-05-14T15:21:26.235Z,29.70
2019-05-14T15:24:07.283Z,30.90
2019-05-14T15:26:23.444Z,29.90
2019-05-14T15:28:51.146Z,30.00
2019-05-14T15:31:19.076Z,30.00
2019-05-14T15:33:50.435Z,30.00
2019-05-14T15:36:19.414Z,30.20
2019-05-14T15:38:48.474Z,30.10
2019-05-14T15:41:15.250Z,30.00
2019-05-14T15:43:42.764Z,29.80
2019-05-14T15:46:10.750Z,29.50
2019-05-14T15:48:39.459Z,29.80
2019-05-14T15:51:14.348Z,28.70
2019-05-14T15:53:38.640Z,28.70
2019-05-14T15:56:08.064Z,29.00
2019-05-14T15:58:35.394Z,28.50
2019-05-14T16:01:03.028Z,28.30
2019-05-14T16:03:30.499Z,28.50
2019-05-14T16:05:59.839Z,28.20
2019-05-14T16:08:29.591Z,28.20
2019-05-14T16:11:00.093Z,28.30
2019-05-14T16:13:28.465Z,28.30
2019-05-14T16:15:55.025Z,28.20
2019-05-14T16:18:22.613Z,28.40
2019-05-14T16:20:50.137Z,28.50
2019-05-14T16:23:18.760Z,28.70
2019-05-14T16:25:48.255Z,28.80
2019-05-14T16:28:15.575Z,29.00
2019-05-14T16:30:43.137Z,29.20
2019-05-14T16:33:10.587Z,29.30
2019-05-14T16:35:39.294Z,29.30
2019-05-14T16:38:08.399Z,29.40
2019-05-14T16:40:35.959Z,29.50
2019-05-14T16:43:03.409Z,29.40
2019-05-14T16:45:30.929Z,30.00
2019-05-14T16:47:59.334Z,29.90
2019-05-14T16:50:28.690Z,29.50
2019-05-14T16:52:58.374Z,29.50
2019-05-14T16:55:29.647Z,29.50
2019-05-14T16:57:54.809Z,29.50
2019-05-14T17:00:22.293Z,29.50
2019-05-14T17:02:49.801Z,29.40
2019-05-14T17:05:17.406Z,29.20
2019-05-14T17:07:44.851Z,29.10
2019-05-14T17:10:12.358Z,29.00
2019-05-14T17:12:52.684Z,29.00
2019-05-14T17:15:09.864Z,29.10
2019-05-14T17:17:37.499Z,29.10
2019-05-14T17:20:05.329Z,29.20
2019-05-14T17:22:33.694Z,29.10
2019-05-14T17:25:02.397Z,29.10
2019-05-14T17:27:29.986Z,29.20
2019-05-14T17:29:58.981Z,29.20
2019-05-14T17:32:30.041Z,29.80
2019-05-14T17:34:55.890Z,29.40
2019-05-14T17:37:23.313Z,30.00
2019-05-14T17:39:50.826Z,29.60
2019-05-14T17:42:19.237Z,31.00
2019-05-14T17:44:48.219Z,29.90
2019-05-14T17:47:18.609Z,30.60
2019-05-14T17:49:48.368Z,29.60
2019-05-14T17:52:15.382Z,30.40
2019-05-14T17:54:42.949Z,30.60
2019-05-14T17:57:10.400Z,30.80
2019-05-14T17:59:39.026Z,31.00
2019-05-14T18:02:08.713Z,31.20
2019-05-14T18:04:36.151Z,31.20
2019-05-14T18:07:03.646Z,31.10
2019-05-14T18:09:31.096Z,31.10
2019-05-14T18:11:58.749Z,31.00
2019-05-14T18:14:28.238Z,30.90
2019-05-14T18:16:58.260Z,30.80
2019-05-14T18:19:25.072Z,30.80
2019-05-14T18:21:52.517Z,30.70
2019-05-14T18:24:20.062Z,30.80
2019-05-14T18:26:51.031Z,30.70
2019-05-14T18:29:19.011Z,30.80
2019-05-14T18:31:52.528Z,30.90
2019-05-14T18:34:16.174Z,31.00
2019-05-14T18:36:43.537Z,30.90
2019-05-14T18:39:18.296Z,31.00
2019-05-14T18:41:44.340Z,31.60
2019-05-14T18:44:11.794Z,31.70
2019-05-14T18:46:39.578Z,31.40
2019-05-14T18:49:08.746Z,31.50
2019-05-14T18:51:36.386Z,31.60
2019-05-14T18:54:03.856Z,31.20
2019-05-14T18:56:31.576Z,31.90
2019-05-14T18:59:10.841Z,32.00
2019-05-14T19:01:39.706Z,31.30
2019-05-14T19:04:08.283Z,32.20
2019-05-14T19:06:38.338Z,32.30
2019-05-14T19:09:10.611Z,32.20
2019-05-14T19:11:38.773Z,32.80
2019-05-14T19:14:08.882Z,32.50
2019-05-14T19:16:38.118Z,33.00
2019-05-14T19:19:05.182Z,33.20
2019-05-14T19:22:28.817Z,33.30
2019-05-14T19:25:38.906Z,33.50
2019-05-14T19:28:08.773Z,33.60
2019-05-14T19:30:38.124Z,33.50
2019-05-14T19:33:05.395Z,34.20
2019-05-14T19:35:32.943Z,33.90
2019-05-14T19:38:00.449Z,34.20
2019-05-14T19:40:29.217Z,34.30
2019-05-14T19:43:01.603Z,34.60
2019-05-14T19:45:38.704Z,34.90
2019-05-14T19:48:32.921Z,34.70
2019-05-14T19:51:00.789Z,34.80
2019-05-14T19:53:28.472Z,34.70
2019-05-14T19:56:32.359Z,34.70
2019-05-14T19:59:00.137Z,35.00
2019-05-14T20:01:28.698Z,35.10
2019-05-14T20:03:58.802Z,35.10
2019-05-14T20:06:25.842Z,35.40
2019-05-14T20:08:53.877Z,35.50
2019-05-14T20:11:21.400Z,35.60
2019-05-14T20:13:48.839Z,35.50
2019-05-14T20:16:18.478Z,35.60
2019-05-14T20:18:48.622Z,35.90
2019-05-14T20:21:15.420Z,35.00
2019-05-14T20:23:42.830Z,35.80
2019-05-14T20:26:10.455Z,36.10
2019-05-14T20:28:39.053Z,36.20
2019-05-14T20:31:10.183Z,36.20
2019-05-14T20:33:36.186Z,36.30
2019-05-14T20:36:08.202Z,36.30
2019-05-14T20:38:35.974Z,36.50
2019-05-14T20:41:03.589Z,36.90
2019-05-14T20:43:31.762Z,35.10
2019-05-14T20:45:59.539Z,36.80
2019-05-14T20:48:29.128Z,36.80
2019-05-14T20:50:58.434Z,37.00
2019-05-14T20:53:25.968Z,37.10
2019-05-14T20:55:53.484Z,37.30
2019-05-14T20:58:20.993Z,37.30
2019-05-14T21:00:48.604Z,37.40
2019-05-14T21:03:18.506Z,37.30
2019-05-14T21:05:45.590Z,37.50
2019-05-14T21:08:13.768Z,37.70
2019-05-14T21:10:41.341Z,37.70
2019-05-14T21:13:08.848Z,37.80
2019-05-14T21:15:38.987Z,37.80
2019-05-14T21:18:07.959Z,38.10
2019-05-14T21:20:34.944Z,38.20
2019-05-14T21:23:09.091Z,38.30
2019-05-14T21:25:38.793Z,38.40
2019-05-14T21:28:06.356Z,38.90
2019-05-14T21:30:35.338Z,38.40
2019-05-14T21:33:02.894Z,38.60
2019-05-14T21:35:30.410Z,38.80
2019-05-14T21:37:59.292Z,38.90
2019-05-14T21:40:31.688Z,39.10
2019-05-14T21:42:56.652Z,41.10
2019-05-14T21:45:24.054Z,39.00
2019-05-14T21:47:51.439Z,39.00
2019-05-14T21:50:18.900Z,39.10
2019-05-14T21:52:46.400Z,39.10
2019-05-14T21:55:14.396Z,39.20
2019-05-14T21:57:53.588Z,39.20
2019-05-14T22:00:18.797Z,39.20
2019-05-14T22:02:49.219Z,39.10
2019-05-14T22:05:18.816Z,39.10
2019-05-14T22:07:48.103Z,39.20
2019-05-14T22:10:15.591Z,39.20
2019-05-14T22:12:43.470Z,39.40
2019-05-14T22:15:11.169Z,39.30
2019-05-14T22:20:12.787Z,39.20
2019-05-14T22:25:28.459Z,39.20
2019-05-14T22:28:10.849Z,39.30
2019-05-14T22:30:25.590Z,39.40
2019-05-14T22:32:53.413Z,39.50
2019-05-14T22:35:20.912Z,39.50
2019-05-14T22:37:48.495Z,39.50
2019-05-14T22:40:18.225Z,39.40
2019-05-14T22:42:45.389Z,40.90
2019-05-14T22:45:13.065Z,39.50
2019-05-14T22:47:40.673Z,39.80
2019-05-14T22:50:08.976Z,39.80
2019-05-14T22:52:38.637Z,39.70
2019-05-14T22:55:06.369Z,39.80
2019-05-14T22:57:33.702Z,39.90
2019-05-14T23:00:01.103Z,39.80
2019-05-14T23:02:28.552Z,40.00
2019-05-14T23:04:55.996Z,40.00
2019-05-14T23:07:23.332Z,40.10
2019-05-14T23:09:50.672Z,40.10
2019-05-14T23:12:18.110Z,40.20
2019-05-14T23:14:45.494Z,40.30
2019-05-14T23:17:12.806Z,40.30
2019-05-14T23:19:40.178Z,40.30
2019-05-14T23:22:07.558Z,40.00
2019-05-14T23:24:34.902Z,40.50
2019-05-14T23:27:03.423Z,40.50
2019-05-14T23:29:30.853Z,41.30
2019-05-14T23:31:58.848Z,40.60
2019-05-14T23:34:28.492Z,40.50
2019-05-14T23:37:08.495Z,40.60
2019-05-14T23:39:38.181Z,40.50
2019-05-14T23:42:05.040Z,40.60
2019-05-14T23:44:32.471Z,40.80
2019-05-14T23:46:59.815Z,40.80
2019-05-14T23:49:27.218Z,40.80
2019-05-14T23:51:54.663Z,40.90
2019-05-14T23:54:22.029Z,40.70
2019-05-14T23:56:49.465Z,40.80
2019-05-14T23:59:18.422Z,40.80
